createdAt,value
2023-05-02T00:02:44.394Z,97442.34
2023-05-02T00:07:48.760Z,97355.06
2023-05-02T00:12:51.550Z,97472.59
2023-05-02T00:17:54.352Z,97404.19
2023-05-02T00:22:58.021Z,97425.03
2023-05-02T00:28:04.825Z,97412.47
2023-05-02T00:33:07.839Z,97291.47
2023-05-02T00:38:10.521Z,97419.44
2023-05-02T00:43:13.293Z,97411.00
2023-05-02T00:48:16.038Z,97198.81
2023-05-02T00:53:18.844Z,97234.19
2023-05-02T00:58:21.612Z,97277.50
2023-05-02T01:03:40.590Z,97292.88
2023-05-02T01:09:47.379Z,97346.28
2023-05-02T01:14:55.931Z,97226.00
2023-05-02T01:20:06.679Z,97333.09
2023-05-02T01:25:17.950Z,97329.34
2023-05-02T01:30:22.348Z,97090.38
2023-05-02T01:35:26.969Z,97100.91
2023-05-02T01:40:30.879Z,97148.47
2023-05-02T01:45:36.688Z,97315.50
2023-05-02T01:50:42.938Z,97321.03
2023-05-02T01:55:47.412Z,97356.00
2023-05-02T02:00:50.413Z,97292.09
2023-05-02T02:05:55.288Z,97370.81
2023-05-02T02:11:12.672Z,97367.06
2023-05-02T02:16:32.054Z,97328.19
2023-05-02T02:21:37.022Z,97228.69
2023-05-02T02:26:39.560Z,97357.91
2023-05-02T02:31:42.272Z,97144.16
2023-05-02T02:36:47.504Z,97361.25
2023-05-02T02:42:19.621Z,97358.44
2023-05-02T02:47:57.077Z,97359.13
2023-05-02T02:53:16.258Z,97345.25
2023-05-02T02:58:37.829Z,97358.66
2023-05-02T03:03:42.573Z,97304.81
2023-05-02T03:08:47.043Z,97363.41
2023-05-02T03:13:49.780Z,97250.28
2023-05-02T03:18:53.450Z,97197.81
2023-05-02T03:23:56.250Z,97216.00
2023-05-02T03:28:59.287Z,97338.34
2023-05-02T03:34:10.775Z,97301.44
2023-05-02T03:39:13.526Z,97196.63
2023-05-02T03:44:16.186Z,97274.81
2023-05-02T03:49:20.442Z,97077.34
2023-05-02T03:54:23.842Z,97227.41
2023-05-02T03:59:26.523Z,97286.22
2023-05-02T04:04:29.686Z,97326.16
2023-05-02T04:09:32.397Z,97336.44
2023-05-02T04:14:35.598Z,97313.81
2023-05-02T04:19:38.160Z,97226.56
2023-05-02T04:24:41.290Z,97196.16
2023-05-02T04:29:54.840Z,97344.03
2023-05-02T04:34:57.378Z,97133.91
2023-05-02T04:40:00.388Z,97338.72
2023-05-02T04:45:03.297Z,97313.31
2023-05-02T04:50:06.688Z,97370.75
2023-05-02T04:55:09.642Z,97320.84
2023-05-02T05:00:12.925Z,97275.28
2023-05-02T05:05:25.616Z,97366.47
2023-05-02T05:10:28.943Z,97392.63
2023-05-02T05:15:31.474Z,97241.69
2023-05-02T05:20:34.517Z,97309.31
2023-05-02T05:25:37.437Z,97256.91
2023-05-02T05:30:50.091Z,97170.75
2023-05-02T05:35:52.759Z,97282.34
2023-05-02T05:40:55.652Z,97381.31
2023-05-02T05:45:58.637Z,97379.34
2023-05-02T05:51:06.325Z,97430.25
2023-05-02T05:56:15.411Z,97339.75
2023-05-02T06:01:18.179Z,97443.06
2023-05-02T06:06:20.724Z,97401.81
2023-05-02T06:11:23.401Z,97306.94
2023-05-02T06:16:26.182Z,97444.72
2023-05-02T06:21:29.202Z,97452.59
2023-05-02T06:26:41.760Z,97436.63
2023-05-02T06:31:44.450Z,97456.78
2023-05-02T06:36:47.143Z,97418.75
2023-05-02T06:41:49.736Z,97407.00
2023-05-02T06:46:52.483Z,97456.56
2023-05-02T06:51:55.157Z,97416.50
2023-05-02T06:56:58.057Z,97462.88
2023-05-02T07:02:01.009Z,97428.59
2023-05-02T07:07:14.255Z,97422.47
2023-05-02T07:12:17.093Z,97361.41
2023-05-02T07:17:20.434Z,97270.06
2023-05-02T07:22:22.984Z,97399.84
2023-05-02T07:27:26.016Z,97332.53
2023-05-02T07:32:28.964Z,97470.31
2023-05-02T07:37:36.176Z,97368.78
2023-05-02T07:42:39.072Z,97373.06
2023-05-02T07:48:00.508Z,97451.31
2023-05-02T07:53:03.446Z,97422.75
2023-05-02T07:58:16.126Z,97464.31
2023-05-02T08:03:18.932Z,97479.88
2023-05-02T08:08:21.566Z,97437.50
2023-05-02T08:13:24.525Z,97398.13
2023-05-02T08:18:27.283Z,97331.16
2023-05-02T08:23:30.007Z,97498.75
2023-05-02T08:28:32.957Z,97515.53
2023-05-02T08:33:35.926Z,97499.44
2023-05-02T08:38:38.753Z,97413.94
2023-05-02T08:43:42.032Z,97508.03
2023-05-02T08:48:46.616Z,97512.50
2023-05-02T08:53:51.204Z,97470.31
2023-05-02T08:58:53.807Z,97456.63
2023-05-02T09:03:59.193Z,97457.56
2023-05-02T09:09:02.027Z,97265.44
2023-05-02T09:14:16.653Z,97505.44
2023-05-02T09:19:26.965Z,97515.75
2023-05-02T09:24:30.491Z,97283.25
2023-05-02T09:29:38.870Z,97385.97
2023-05-02T09:34:42.051Z,97504.03
2023-05-02T09:40:07.246Z,97456.81
2023-05-02T09:45:10.603Z,97426.34
2023-05-02T09:50:13.615Z,97401.03
2023-05-02T09:55:23.289Z,97415.28
2023-05-02T10:00:45.892Z,97504.50
2023-05-02T10:05:55.243Z,97508.88
2023-05-02T10:14:01.368Z,97492.66
2023-05-02T10:19:10.016Z,97484.88
2023-05-02T10:24:13.947Z,97375.19
2023-05-02T10:29:31.068Z,97370.16
2023-05-02T10:34:34.906Z,97499.09
2023-05-02T10:39:38.841Z,97492.19
2023-05-02T10:44:43.048Z,97495.72
2023-05-02T10:50:03.850Z,97503.00
2023-05-02T10:55:24.930Z,97506.19
2023-05-02T11:00:27.678Z,97518.19
2023-05-02T11:05:30.594Z,97399.91
2023-05-02T11:10:35.901Z,97534.44
2023-05-02T11:15:41.337Z,97532.06
2023-05-02T11:20:45.595Z,97543.75
2023-05-02T11:25:49.064Z,97547.16
2023-05-02T11:30:51.824Z,97303.16
2023-05-02T11:35:54.611Z,97252.09
2023-05-02T11:40:59.775Z,97308.19
2023-05-02T11:46:08.487Z,97451.25
2023-05-02T11:51:11.853Z,97511.63
2023-05-02T11:56:14.701Z,97499.78
2023-05-02T12:01:27.572Z,97532.47
2023-05-02T12:06:30.443Z,97392.47
2023-05-02T12:11:33.206Z,97258.88
2023-05-02T12:16:36.282Z,97577.16
2023-05-02T12:21:39.053Z,97467.00
2023-05-02T12:26:41.958Z,97279.00
2023-05-02T12:31:52.805Z,97542.22
2023-05-02T12:36:55.788Z,97349.56
2023-05-02T12:41:58.678Z,97567.03
2023-05-02T12:47:02.167Z,97612.72
2023-05-02T12:52:13.370Z,97518.25
2023-05-02T12:57:26.794Z,97605.41
2023-05-02T13:02:29.499Z,97570.63
2023-05-02T13:07:32.346Z,97607.31
2023-05-02T13:12:38.016Z,97571.03
2023-05-02T13:17:41.296Z,97597.72
2023-05-02T13:22:43.876Z,97612.75
2023-05-02T13:27:55.515Z,97571.72
2023-05-02T13:32:59.734Z,97635.19
2023-05-02T13:38:02.537Z,97605.94
2023-05-02T13:43:05.323Z,97600.41
2023-05-02T13:48:08.211Z,97609.75
2023-05-02T13:53:10.950Z,97610.97
2023-05-02T13:58:13.615Z,97604.03
2023-05-02T14:03:17.124Z,97543.16
2023-05-02T14:08:24.487Z,97524.22
2023-05-02T14:13:37.152Z,97576.69
2023-05-02T14:18:39.871Z,97592.03
2023-05-02T14:23:42.622Z,97559.81
2023-05-02T14:28:45.256Z,97605.75
2023-05-02T14:33:48.203Z,97557.75
2023-05-02T14:38:50.807Z,97413.06
2023-05-02T14:44:04.689Z,97613.72
2023-05-02T14:49:07.316Z,97616.09
2023-05-02T14:54:09.833Z,97626.78
2023-05-02T14:59:15.632Z,97578.13
2023-05-02T15:04:20.273Z,97619.56
2023-05-02T15:09:23.108Z,97618.31
2023-05-02T15:14:25.687Z,97627.09
2023-05-02T15:19:28.811Z,97586.34
2023-05-02T15:24:31.773Z,97632.78
2023-05-02T15:29:35.198Z,97633.75
2023-05-02T15:34:37.778Z,97620.97
2023-05-02T15:39:47.772Z,97608.22
2023-05-02T15:45:00.351Z,97599.94
2023-05-02T15:50:03.352Z,97619.91
2023-05-02T15:55:06.659Z,97628.56
2023-05-02T16:00:12.229Z,97592.03
2023-05-02T16:05:14.984Z,97599.94
2023-05-02T16:10:17.523Z,97630.22
2023-05-02T16:15:21.260Z,97645.25
2023-05-02T16:20:23.889Z,97642.31
2023-05-02T16:25:26.638Z,97637.38
2023-05-02T16:30:29.361Z,97642.50
2023-05-02T16:35:32.005Z,97588.69
2023-05-02T16:40:34.952Z,97631.22
2023-05-02T16:45:37.516Z,97546.50
2023-05-02T16:50:40.044Z,97603.03
2023-05-02T16:55:42.637Z,97641.25
2023-05-02T17:04:39.674Z,97590.50
2023-05-02T17:09:44.359Z,97647.44
2023-05-02T17:14:47.879Z,97626.09
2023-05-02T17:19:51.561Z,97645.84
2023-05-02T17:24:55.656Z,97506.50
2023-05-02T17:29:59.553Z,97467.28
2023-05-02T17:35:09.932Z,97653.06
2023-05-02T17:40:13.470Z,97634.03
2023-05-02T17:45:17.601Z,97538.47
2023-05-02T17:50:20.928Z,97616.78
2023-05-02T17:55:38.017Z,97670.13
2023-05-02T18:00:52.125Z,97566.28
2023-05-02T18:05:55.722Z,97688.81
2023-05-02T18:11:00.776Z,97681.94
2023-05-02T18:21:10.573Z,97680.72
2023-05-02T18:26:14.862Z,97479.75
2023-05-02T18:31:18.511Z,97633.34
2023-05-02T18:36:29.446Z,97697.31
2023-05-02T18:41:35.590Z,97458.50
2023-05-02T18:46:39.188Z,97542.56
2023-05-02T18:56:47.825Z,97657.19
2023-05-02T19:01:51.817Z,97558.81
2023-05-02T19:06:55.904Z,97730.91
2023-05-02T19:11:59.346Z,97523.69
2023-05-02T19:17:03.175Z,97593.28
2023-05-02T19:22:06.730Z,97688.41
2023-05-02T19:27:10.624Z,97726.72
2023-05-02T19:32:15.292Z,97653.94
2023-05-02T19:37:18.867Z,97772.41
2023-05-02T19:42:32.158Z,97739.88
2023-05-02T19:47:35.548Z,97794.63
2023-05-02T19:52:42.513Z,97779.69
2023-05-02T19:57:45.898Z,97708.34
2023-05-02T20:02:51.331Z,97685.66
2023-05-02T20:07:54.994Z,97583.09
2023-05-02T20:13:05.671Z,97823.47
2023-05-02T20:18:10.079Z,97744.72
2023-05-02T20:23:14.210Z,97820.97
2023-05-02T20:28:27.631Z,97748.06
2023-05-02T20:33:41.606Z,97628.66
2023-05-02T20:38:48.706Z,97838.88
2023-05-02T20:43:52.484Z,97800.81
2023-05-02T20:48:55.252Z,97688.50
2023-05-02T20:53:58.250Z,97846.31
2023-05-02T20:59:00.920Z,97873.13
2023-05-02T21:04:05.028Z,97890.03
2023-05-02T21:09:10.130Z,97875.53
2023-05-02T21:14:12.762Z,97768.25
2023-05-02T21:19:25.549Z,97869.34
2023-05-02T21:24:28.217Z,97809.34
2023-05-02T21:29:30.732Z,97948.75
2023-05-02T21:34:33.451Z,97896.91
2023-05-02T21:39:36.200Z,97845.28
2023-05-02T21:44:38.857Z,97792.28
2023-05-02T21:49:41.569Z,97832.03
2023-05-02T21:54:47.987Z,97793.28
2023-05-02T21:59:50.693Z,97971.59
2023-05-02T22:04:53.373Z,97950.78
2023-05-02T22:09:56.018Z,97840.56
2023-05-02T22:14:58.811Z,97803.31
2023-05-02T22:20:03.164Z,97844.63
2023-05-02T22:25:06.941Z,97982.44
2023-05-02T22:30:10.813Z,97885.22
2023-05-02T22:35:13.368Z,97989.59
2023-05-02T22:40:15.944Z,97822.56
2023-05-02T22:45:18.996Z,97847.28
2023-05-02T22:50:22.427Z,97953.19
2023-05-02T22:55:39.328Z,97990.69
2023-05-02T23:00:42.269Z,97838.28
2023-05-02T23:05:45.022Z,97846.66
2023-05-02T23:11:07.675Z,97927.50
2023-05-02T23:16:10.394Z,97911.78
2023-05-02T23:21:17.253Z,97996.84
2023-05-02T23:26:19.801Z,97894.25
2023-05-02T23:31:22.460Z,97980.91
2023-05-02T23:36:43.488Z,97952.75
2023-05-02T23:41:46.298Z,97992.28
2023-05-02T23:46:51.273Z,97951.25
2023-05-02T23:51:53.990Z,97863.75
2023-05-02T23:56:57.725Z,97875.22
